Huntington, Arkansas
Current Conditions -  °F | °C
As of 4:25 AM on Tuesday 21 Oct 2014 (Local Time) from KFSM Reporting Station
Haze Haze  
Wind Chill: 57°   Ceiling: 3700
Heat Index: 57°   Visibility: 4mi
Dew Point: 56°   Wind: 0mph
Humidity: 96%   Direction: NA
Pressure: 30.06"   Gusts: NA
Location:  35.08°N, 94.26°W
Report Text: KFSM 210925Z AUTO 00000KT 4SM BR FEW002 BKN037 14/13 A3006 RMK AO2 T01390133
Loading
Personal Weather Stations






























Interactive Weather Map
Tropical Storm Tracking
New forecast layout! Learn more

10-Day Weather Forecast

Advertisements
Track Severe Weather on mobile